sensor_id;sensor_type;location;lat;lon;timestamp;temperature;humidity
3876;DHT22;1953;51.222;6.624;2023-03-01T00:01:16;2.20;1.00
3876;DHT22;1953;51.222;6.624;2023-03-01T00:10:00;2.10;1.00
3876;DHT22;1953;51.222;6.624;2023-03-01T00:14:42;2.00;1.00
3876;DHT22;1953;51.222;6.624;2023-03-01T00:19:24;2.00;1.00
3876;DHT22;1953;51.222;6.624;2023-03-01T00:24:07;2.00;1.00
3876;DHT22;1953;51.222;6.624;2023-03-01T00:28:52;2.00;1.00
3876;DHT22;1953;51.222;6.624;2023-03-01T00:33:36;1.90;1.00
3876;DHT22;1953;51.222;6.624;2023-03-01T00:38:19;1.90;1.00
3876;DHT22;1953;51.222;6.624;2023-03-01T00:43:02;1.90;1.00
3876;DHT22;1953;51.222;6.624;2023-03-01T00:47:46;1.90;1.00
3876;DHT22;1953;51.222;6.624;2023-03-01T00:52:28;1.90;1.00
3876;DHT22;1953;51.222;6.624;2023-03-01T00:57:10;1.90;1.00
3876;DHT22;1953;51.222;6.624;2023-03-01T01:01:53;1.80;1.00
3876;DHT22;1953;51.222;6.624;2023-03-01T01:06:40;1.80;1.00
3876;DHT22;1953;51.222;6.624;2023-03-01T01:11:25;1.80;1.00
3876;DHT22;1953;51.222;6.624;2023-03-01T01:16:08;1.70;1.00
3876;DHT22;1953;51.222;6.624;2023-03-01T01:20:51;1.70;1.00
3876;DHT22;1953;51.222;6.624;2023-03-01T01:25:36;1.70;1.00
3876;DHT22;1953;51.222;6.624;2023-03-01T01:30:18;1.70;1.00
3876;DHT22;1953;51.222;6.624;2023-03-01T01:35:01;1.60;1.00
3876;DHT22;1953;51.222;6.624;2023-03-01T01:39:43;1.60;1.00
3876;DHT22;1953;51.222;6.624;2023-03-01T01:44:29;1.50;1.00
3876;DHT22;1953;51.222;6.624;2023-03-01T01:49:23;1.40;1.00
3876;DHT22;1953;51.222;6.624;2023-03-01T01:54:10;1.30;1.00
3876;DHT22;1953;51.222;6.624;2023-03-01T01:58:54;1.30;1.00
3876;DHT22;1953;51.222;6.624;2023-03-01T02:03:39;1.30;1.00
3876;DHT22;1953;51.222;6.624;2023-03-01T02:08:27;1.30;1.00
3876;DHT22;1953;51.222;6.624;2023-03-01T02:13:11;1.20;1.00
3876;DHT22;1953;51.222;6.624;2023-03-01T02:17:54;1.20;1.00
3876;DHT22;1953;51.222;6.624;2023-03-01T02:22:40;1.10;1.00
3876;DHT22;1953;51.222;6.624;2023-03-01T02:27:33;1.10;1.00
3876;DHT22;1953;51.222;6.624;2023-03-01T02:32:20;1.10;1.00
3876;DHT22;1953;51.222;6.624;2023-03-01T02:37:10;1.00;1.00
3876;DHT22;1953;51.222;6.624;2023-03-01T02:41:54;1.00;1.00
3876;DHT22;1953;51.222;6.624;2023-03-01T02:46:43;1.00;1.00
3876;DHT22;1953;51.222;6.624;2023-03-01T02:51:39;1.00;1.00
3876;DHT22;1953;51.222;6.624;2023-03-01T02:56:25;0.90;1.00
3876;DHT22;1953;51.222;6.624;2023-03-01T03:01:07;0.90;1.00
3876;DHT22;1953;51.222;6.624;2023-03-01T03:05:51;0.90;1.00
3876;DHT22;1953;51.222;6.624;2023-03-01T03:10:37;0.80;1.00
3876;DHT22;1953;51.222;6.624;2023-03-01T03:15:21;0.80;1.00
3876;DHT22;1953;51.222;6.624;2023-03-01T03:20:05;0.80;1.00
3876;DHT22;1953;51.222;6.624;2023-03-01T03:24:51;0.70;1.00
3876;DHT22;1953;51.222;6.624;2023-03-01T03:29:35;0.70;1.00
3876;DHT22;1953;51.222;6.624;2023-03-01T03:34:18;0.70;1.00
3876;DHT22;1953;51.222;6.624;2023-03-01T03:39:00;0.70;1.00
3876;DHT22;1953;51.222;6.624;2023-03-01T03:43:43;0.70;1.00
3876;DHT22;1953;51.222;6.624;2023-03-01T03:48:27;0.70;1.00
3876;DHT22;1953;51.222;6.624;2023-03-01T03:53:12;0.60;1.00
3876;DHT22;1953;51.222;6.624;2023-03-01T03:57:57;0.60;1.00
3876;DHT22;1953;51.222;6.624;2023-03-01T04:02:43;0.60;1.00
3876;DHT22;1953;51.222;6.624;2023-03-01T04:07:27;0.60;1.00
3876;DHT22;1953;51.222;6.624;2023-03-01T04:12:09;0.60;1.00
3876;DHT22;1953;51.222;6.624;2023-03-01T04:16:52;0.60;1.00
3876;DHT22;1953;51.222;6.624;2023-03-01T04:21:34;0.60;1.00
3876;DHT22;1953;51.222;6.624;2023-03-01T04:26:19;0.50;1.00
3876;DHT22;1953;51.222;6.624;2023-03-01T04:31:04;0.50;1.00
3876;DHT22;1953;51.222;6.624;2023-03-01T04:35:53;0.50;1.00
3876;DHT22;1953;51.222;6.624;2023-03-01T04:40:36;0.40;1.00
3876;DHT22;1953;51.222;6.624;2023-03-01T04:45:20;0.40;1.00
3876;DHT22;1953;51.222;6.624;2023-03-01T04:50:03;0.40;1.00
3876;DHT22;1953;51.222;6.624;2023-03-01T04:54:46;0.30;1.00
3876;DHT22;1953;51.222;6.624;2023-03-01T04:59:29;0.30;1.00
3876;DHT22;1953;51.222;6.624;2023-03-01T05:04:12;0.30;1.00
3876;DHT22;1953;51.222;6.624;2023-03-01T05:08:55;0.30;1.00
3876;DHT22;1953;51.222;6.624;2023-03-01T05:13:38;0.20;1.00
3876;DHT22;1953;51.222;6.624;2023-03-01T05:18:21;0.20;1.00
3876;DHT22;1953;51.222;6.624;2023-03-01T05:23:08;0.30;1.00
3876;DHT22;1953;51.222;6.624;2023-03-01T05:27:50;0.20;1.00
3876;DHT22;1953;51.222;6.624;2023-03-01T05:32:33;0.20;1.00
3876;DHT22;1953;51.222;6.624;2023-03-01T05:37:15;0.20;1.00
3876;DHT22;1953;51.222;6.624;2023-03-01T05:42:00;0.20;1.00
3876;DHT22;1953;51.222;6.624;2023-03-01T05:46:43;0.20;1.00
3876;DHT22;1953;51.222;6.624;2023-03-01T05:51:26;0.10;1.00
3876;DHT22;1953;51.222;6.624;2023-03-01T05:56:08;0.10;1.00
3876;DHT22;1953;51.222;6.624;2023-03-01T06:00:52;0.10;1.00
3876;DHT22;1953;51.222;6.624;2023-03-01T06:05:34;0.10;1.00
3876;DHT22;1953;51.222;6.624;2023-03-01T06:10:17;0.00;1.00
3876;DHT22;1953;51.222;6.624;2023-03-01T06:15:01;0.00;1.00
3876;DHT22;1953;51.222;6.624;2023-03-01T06:19:46;-0.10;1.00
3876;DHT22;1953;51.222;6.624;2023-03-01T06:24:29;-0.10;1.00
3876;DHT22;1953;51.222;6.624;2023-03-01T06:29:11;-0.10;1.00
3876;DHT22;1953;51.222;6.624;2023-03-01T06:33:54;-0.10;1.00
3876;DHT22;1953;51.222;6.624;2023-03-01T06:38:38;-0.10;1.00
3876;DHT22;1953;51.222;6.624;2023-03-01T06:43:22;0.00;1.00
3876;DHT22;1953;51.222;6.624;2023-03-01T06:48:05;0.00;1.00
3876;DHT22;1953;51.222;6.624;2023-03-01T06:52:47;0.00;1.00
3876;DHT22;1953;51.222;6.624;2023-03-01T06:57:31;0.10;1.00
3876;DHT22;1953;51.222;6.624;2023-03-01T07:02:14;0.10;1.00
3876;DHT22;1953;51.222;6.624;2023-03-01T07:06:57;0.10;1.00
3876;DHT22;1953;51.222;6.624;2023-03-01T07:11:39;0.20;1.00
3876;DHT22;1953;51.222;6.624;2023-03-01T07:16:23;0.20;1.00
3876;DHT22;1953;51.222;6.624;2023-03-01T07:21:06;0.20;1.00
3876;DHT22;1953;51.222;6.624;2023-03-01T07:25:52;0.20;1.00
3876;DHT22;1953;51.222;6.624;2023-03-01T07:30:35;0.30;1.00
3876;DHT22;1953;51.222;6.624;2023-03-01T07:35:19;0.40;1.00
3876;DHT22;1953;51.222;6.624;2023-03-01T07:40:01;0.40;1.00
3876;DHT22;1953;51.222;6.624;2023-03-01T07:44:44;0.50;1.00
3876;DHT22;1953;51.222;6.624;2023-03-01T07:49:26;0.70;1.00
3876;DHT22;1953;51.222;6.624;2023-03-01T07:54:10;0.80;1.00
3876;DHT22;1953;51.222;6.624;2023-03-01T07:58:53;0.90;1.00
3876;DHT22;1953;51.222;6.624;2023-03-01T08:03:36;1.00;1.00
3876;DHT22;1953;51.222;6.624;2023-03-01T08:08:18;1.20;1.00
3876;DHT22;1953;51.222;6.624;2023-03-01T08:13:02;1.30;1.00
3876;DHT22;1953;51.222;6.624;2023-03-01T08:17:45;1.40;1.00
3876;DHT22;1953;51.222;6.624;2023-03-01T08:22:27;1.40;1.00
3876;DHT22;1953;51.222;6.624;2023-03-01T08:27:09;1.50;1.00
3876;DHT22;1953;51.222;6.624;2023-03-01T08:31:54;1.60;1.00
3876;DHT22;1953;51.222;6.624;2023-03-01T08:36:39;1.70;1.00
3876;DHT22;1953;51.222;6.624;2023-03-01T08:41:22;1.80;1.00
3876;DHT22;1953;51.222;6.624;2023-03-01T08:46:05;1.90;1.00
3876;DHT22;1953;51.222;6.624;2023-03-01T08:50:50;2.00;1.00
3876;DHT22;1953;51.222;6.624;2023-03-01T08:55:32;2.10;1.00
3876;DHT22;1953;51.222;6.624;2023-03-01T09:00:15;2.30;1.00
3876;DHT22;1953;51.222;6.624;2023-03-01T09:04:58;2.40;1.00
3876;DHT22;1953;51.222;6.624;2023-03-01T09:09:42;2.60;1.00
3876;DHT22;1953;51.222;6.624;2023-03-01T09:14:24;2.70;1.00
3876;DHT22;1953;51.222;6.624;2023-03-01T09:19:07;2.90;1.00
3876;DHT22;1953;51.222;6.624;2023-03-01T09:23:50;3.20;1.00
3876;DHT22;1953;51.222;6.624;2023-03-01T09:28:34;3.30;1.00
3876;DHT22;1953;51.222;6.624;2023-03-01T09:33:16;3.50;1.00
3876;DHT22;1953;51.222;6.624;2023-03-01T09:37:58;3.70;1.00
3876;DHT22;1953;51.222;6.624;2023-03-01T09:42:48;3.90;1.00
3876;DHT22;1953;51.222;6.624;2023-03-01T09:47:34;4.10;1.00
3876;DHT22;1953;51.222;6.624;2023-03-01T09:52:23;4.30;1.00
3876;DHT22;1953;51.222;6.624;2023-03-01T09:57:18;4.40;1.00
3876;DHT22;1953;51.222;6.624;2023-03-01T10:02:12;4.60;1.00
3876;DHT22;1953;51.222;6.624;2023-03-01T10:07:14;4.80;1.00
3876;DHT22;1953;51.222;6.624;2023-03-01T10:12:00;4.90;1.00
3876;DHT22;1953;51.222;6.624;2023-03-01T10:16:50;4.90;1.00
3876;DHT22;1953;51.222;6.624;2023-03-01T10:21:38;5.00;1.00
3876;DHT22;1953;51.222;6.624;2023-03-01T10:26:43;5.10;1.00
3876;DHT22;1953;51.222;6.624;2023-03-01T10:31:33;5.20;1.00
3876;DHT22;1953;51.222;6.624;2023-03-01T10:36:18;5.40;1.00
3876;DHT22;1953;51.222;6.624;2023-03-01T10:41:05;5.40;1.00
3876;DHT22;1953;51.222;6.624;2023-03-01T10:45:49;5.50;1.00
3876;DHT22;1953;51.222;6.624;2023-03-01T10:50:32;5.70;1.00
3876;DHT22;1953;51.222;6.624;2023-03-01T10:55:25;5.70;1.00
3876;DHT22;1953;51.222;6.624;2023-03-01T11:00:21;5.80;1.00
3876;DHT22;1953;51.222;6.624;2023-03-01T11:05:18;5.90;1.00
3876;DHT22;1953;51.222;6.624;2023-03-01T11:10:11;6.10;1.00
3876;DHT22;1953;51.222;6.624;2023-03-01T11:14:54;6.30;1.00
3876;DHT22;1953;51.222;6.624;2023-03-01T11:19:38;6.30;1.00
3876;DHT22;1953;51.222;6.624;2023-03-01T11:24:26;6.30;1.00
3876;DHT22;1953;51.222;6.624;2023-03-01T11:29:17;6.40;1.00
3876;DHT22;1953;51.222;6.624;2023-03-01T11:34:05;6.40;1.00
3876;DHT22;1953;51.222;6.624;2023-03-01T11:38:50;6.50;1.00
3876;DHT22;1953;51.222;6.624;2023-03-01T11:43:37;6.80;1.00
3876;DHT22;1953;51.222;6.624;2023-03-01T11:48:43;6.80;1.00
3876;DHT22;1953;51.222;6.624;2023-03-01T11:53:43;6.80;1.00
3876;DHT22;1953;51.222;6.624;2023-03-01T11:58:54;6.90;1.00
3876;DHT22;1953;51.222;6.624;2023-03-01T12:03:56;7.20;1.00
3876;DHT22;1953;51.222;6.624;2023-03-01T12:11:06;7.40;1.00
3876;DHT22;1953;51.222;6.624;2023-03-01T12:16:30;7.40;1.00
3876;DHT22;1953;51.222;6.624;2023-03-01T12:21:30;7.60;1.00
3876;DHT22;1953;51.222;6.624;2023-03-01T12:26:26;7.60;1.00
3876;DHT22;1953;51.222;6.624;2023-03-01T12:31:23;7.80;1.00
3876;DHT22;1953;51.222;6.624;2023-03-01T12:36:23;8.00;1.00
3876;DHT22;1953;51.222;6.624;2023-03-01T12:46:24;8.40;1.00
3876;DHT22;1953;51.222;6.624;2023-03-01T12:51:13;8.80;1.00
3876;DHT22;1953;51.222;6.624;2023-03-01T12:55:59;9.10;1.00
3876;DHT22;1953;51.222;6.624;2023-03-01T13:00:51;9.50;1.00
3876;DHT22;1953;51.222;6.624;2023-03-01T13:05:42;10.20;1.00
3876;DHT22;1953;51.222;6.624;2023-03-01T13:10:31;10.90;1.00
3876;DHT22;1953;51.222;6.624;2023-03-01T13:15:34;11.40;1.00
3876;DHT22;1953;51.222;6.624;2023-03-01T13:20:19;11.50;1.00
3876;DHT22;1953;51.222;6.624;2023-03-01T13:25:14;11.90;1.00
3876;DHT22;1953;51.222;6.624;2023-03-01T13:29:57;12.30;1.00
3876;DHT22;1953;51.222;6.624;2023-03-01T13:34:46;12.40;1.00
3876;DHT22;1953;51.222;6.624;2023-03-01T13:39:31;12.60;1.00
3876;DHT22;1953;51.222;6.624;2023-03-01T13:44:26;12.30;1.00
3876;DHT22;1953;51.222;6.624;2023-03-01T13:49:13;12.30;1.00
3876;DHT22;1953;51.222;6.624;2023-03-01T13:53:57;12.40;1.00
3876;DHT22;1953;51.222;6.624;2023-03-01T13:58:48;12.40;1.00
3876;DHT22;1953;51.222;6.624;2023-03-01T14:03:34;12.20;1.00
3876;DHT22;1953;51.222;6.624;2023-03-01T14:08:24;12.00;1.00
3876;DHT22;1953;51.222;6.624;2023-03-01T14:13:20;12.00;1.00
3876;DHT22;1953;51.222;6.624;2023-03-01T14:18:09;12.40;1.00
3876;DHT22;1953;51.222;6.624;2023-03-01T14:22:58;12.10;1.00
3876;DHT22;1953;51.222;6.624;2023-03-01T14:27:42;11.90;1.00
3876;DHT22;1953;51.222;6.624;2023-03-01T14:32:25;11.80;1.00
3876;DHT22;1953;51.222;6.624;2023-03-01T14:37:18;11.70;1.00
3876;DHT22;1953;51.222;6.624;2023-03-01T14:42:04;12.00;1.00
3876;DHT22;1953;51.222;6.624;2023-03-01T14:46:47;12.20;1.00
3876;DHT22;1953;51.222;6.624;2023-03-01T14:51:36;12.40;1.00
3876;DHT22;1953;51.222;6.624;2023-03-01T14:56:19;12.40;1.00
3876;DHT22;1953;51.222;6.624;2023-03-01T15:01:04;12.50;1.00
3876;DHT22;1953;51.222;6.624;2023-03-01T15:05:47;12.90;1.00
3876;DHT22;1953;51.222;6.624;2023-03-01T15:10:31;12.80;1.00
3876;DHT22;1953;51.222;6.624;2023-03-01T15:15:32;12.50;1.00
3876;DHT22;1953;51.222;6.624;2023-03-01T15:20:18;12.40;1.00
3876;DHT22;1953;51.222;6.624;2023-03-01T15:25:03;12.40;1.00
3876;DHT22;1953;51.222;6.624;2023-03-01T15:29:49;12.40;1.00
3876;DHT22;1953;51.222;6.624;2023-03-01T15:34:33;12.30;1.00
3876;DHT22;1953;51.222;6.624;2023-03-01T15:39:37;12.50;1.00
3876;DHT22;1953;51.222;6.624;2023-03-01T15:44:27;12.90;1.00
3876;DHT22;1953;51.222;6.624;2023-03-01T15:49:25;13.10;1.00
3876;DHT22;1953;51.222;6.624;2023-03-01T15:54:16;13.30;1.00
3876;DHT22;1953;51.222;6.624;2023-03-01T15:59:02;13.20;1.00
3876;DHT22;1953;51.222;6.624;2023-03-01T16:03:45;13.00;1.00
3876;DHT22;1953;51.222;6.624;2023-03-01T16:08:28;12.80;1.00
3876;DHT22;1953;51.222;6.624;2023-03-01T16:13:10;12.70;1.00
3876;DHT22;1953;51.222;6.624;2023-03-01T16:17:54;12.50;1.00
3876;DHT22;1953;51.222;6.624;2023-03-01T16:22:39;12.40;1.00
3876;DHT22;1953;51.222;6.624;2023-03-01T16:27:21;11.70;1.00
3876;DHT22;1953;51.222;6.624;2023-03-01T16:32:04;11.20;1.00
3876;DHT22;1953;51.222;6.624;2023-03-01T16:36:48;10.70;1.00
3876;DHT22;1953;51.222;6.624;2023-03-01T16:41:31;10.40;1.00
3876;DHT22;1953;51.222;6.624;2023-03-01T16:46:14;10.10;1.00
3876;DHT22;1953;51.222;6.624;2023-03-01T16:50:58;9.90;1.00
3876;DHT22;1953;51.222;6.624;2023-03-01T16:55:42;9.80;1.00
3876;DHT22;1953;51.222;6.624;2023-03-01T17:00:26;9.70;1.00
3876;DHT22;1953;51.222;6.624;2023-03-01T17:05:09;9.40;1.00
3876;DHT22;1953;51.222;6.624;2023-03-01T17:09:52;9.20;1.00
3876;DHT22;1953;51.222;6.624;2023-03-01T17:14:36;9.00;1.00
3876;DHT22;1953;51.222;6.624;2023-03-01T17:19:19;8.80;1.00
3876;DHT22;1953;51.222;6.624;2023-03-01T17:24:02;8.70;1.00
3876;DHT22;1953;51.222;6.624;2023-03-01T17:28:45;8.60;1.00
3876;DHT22;1953;51.222;6.624;2023-03-01T17:33:34;8.40;1.00
3876;DHT22;1953;51.222;6.624;2023-03-01T17:38:17;8.30;1.00
3876;DHT22;1953;51.222;6.624;2023-03-01T17:42:59;8.10;1.00
3876;DHT22;1953;51.222;6.624;2023-03-01T17:47:42;8.00;1.00
3876;DHT22;1953;51.222;6.624;2023-03-01T17:52:26;7.80;1.00
3876;DHT22;1953;51.222;6.624;2023-03-01T17:57:08;7.70;1.00
3876;DHT22;1953;51.222;6.624;2023-03-01T18:01:50;7.60;1.00
3876;DHT22;1953;51.222;6.624;2023-03-01T18:06:35;7.50;1.00
3876;DHT22;1953;51.222;6.624;2023-03-01T18:11:20;7.40;1.00
3876;DHT22;1953;51.222;6.624;2023-03-01T18:16:06;7.20;1.00
3876;DHT22;1953;51.222;6.624;2023-03-01T18:20:54;7.10;1.00
3876;DHT22;1953;51.222;6.624;2023-03-01T18:25:38;7.00;1.00
3876;DHT22;1953;51.222;6.624;2023-03-01T18:30:22;6.90;1.00
3876;DHT22;1953;51.222;6.624;2023-03-01T18:35:06;6.90;1.00
3876;DHT22;1953;51.222;6.624;2023-03-01T18:39:50;6.80;1.00
3876;DHT22;1953;51.222;6.624;2023-03-01T18:44:32;6.70;1.00
3876;DHT22;1953;51.222;6.624;2023-03-01T18:49:16;6.70;1.00
3876;DHT22;1953;51.222;6.624;2023-03-01T18:53:58;6.60;1.00
3876;DHT22;1953;51.222;6.624;2023-03-01T18:58:41;6.50;1.00
3876;DHT22;1953;51.222;6.624;2023-03-01T19:03:24;6.40;1.00
3876;DHT22;1953;51.222;6.624;2023-03-01T19:08:08;6.30;1.00
3876;DHT22;1953;51.222;6.624;2023-03-01T19:12:50;6.20;1.00
3876;DHT22;1953;51.222;6.624;2023-03-01T19:17:33;6.10;1.00
3876;DHT22;1953;51.222;6.624;2023-03-01T19:22:16;6.00;1.00
3876;DHT22;1953;51.222;6.624;2023-03-01T19:26:59;5.90;1.00
3876;DHT22;1953;51.222;6.624;2023-03-01T19:31:42;5.90;1.00
3876;DHT22;1953;51.222;6.624;2023-03-01T19:36:25;5.80;1.00
3876;DHT22;1953;51.222;6.624;2023-03-01T19:41:15;5.70;1.00
3876;DHT22;1953;51.222;6.624;2023-03-01T19:45:59;5.70;1.00
3876;DHT22;1953;51.222;6.624;2023-03-01T19:50:42;5.60;1.00
3876;DHT22;1953;51.222;6.624;2023-03-01T19:55:25;5.60;1.00
3876;DHT22;1953;51.222;6.624;2023-03-01T20:00:08;5.50;1.00
3876;DHT22;1953;51.222;6.624;2023-03-01T20:04:52;5.50;1.00
3876;DHT22;1953;51.222;6.624;2023-03-01T20:09:37;5.40;1.00
3876;DHT22;1953;51.222;6.624;2023-03-01T20:14:19;5.30;1.00
3876;DHT22;1953;51.222;6.624;2023-03-01T20:19:02;5.20;1.00
3876;DHT22;1953;51.222;6.624;2023-03-01T20:23:46;5.10;1.00
3876;DHT22;1953;51.222;6.624;2023-03-01T20:28:28;5.00;1.00
3876;DHT22;1953;51.222;6.624;2023-03-01T20:33:11;5.00;1.00
3876;DHT22;1953;51.222;6.624;2023-03-01T20:37:53;5.00;1.00
3876;DHT22;1953;51.222;6.624;2023-03-01T20:42:37;5.00;1.00
3876;DHT22;1953;51.222;6.624;2023-03-01T20:47:19;4.90;1.00
3876;DHT22;1953;51.222;6.624;2023-03-01T20:52:03;4.90;1.00
3876;DHT22;1953;51.222;6.624;2023-03-01T20:56:46;4.80;1.00
3876;DHT22;1953;51.222;6.624;2023-03-01T21:01:30;4.80;1.00
3876;DHT22;1953;51.222;6.624;2023-03-01T21:06:12;4.80;1.00
3876;DHT22;1953;51.222;6.624;2023-03-01T21:10:55;4.80;1.00
3876;DHT22;1953;51.222;6.624;2023-03-01T21:15:38;4.70;1.00
3876;DHT22;1953;51.222;6.624;2023-03-01T21:20:22;4.80;1.00
3876;DHT22;1953;51.222;6.624;2023-03-01T21:25:04;4.70;1.00
3876;DHT22;1953;51.222;6.624;2023-03-01T21:29:47;4.70;1.00
3876;DHT22;1953;51.222;6.624;2023-03-01T21:34:29;4.60;1.00
3876;DHT22;1953;51.222;6.624;2023-03-01T21:39:13;4.60;1.00
3876;DHT22;1953;51.222;6.624;2023-03-01T21:43:58;4.60;1.00
3876;DHT22;1953;51.222;6.624;2023-03-01T21:48:42;4.50;1.00
3876;DHT22;1953;51.222;6.624;2023-03-01T21:53:25;4.30;1.00
3876;DHT22;1953;51.222;6.624;2023-03-01T21:58:10;4.20;1.00
3876;DHT22;1953;51.222;6.624;2023-03-01T22:02:53;4.20;1.00
3876;DHT22;1953;51.222;6.624;2023-03-01T22:07:38;4.10;1.00
3876;DHT22;1953;51.222;6.624;2023-03-01T22:12:20;4.10;1.00
3876;DHT22;1953;51.222;6.624;2023-03-01T22:17:04;4.10;1.00
3876;DHT22;1953;51.222;6.624;2023-03-01T22:21:48;4.10;1.00
3876;DHT22;1953;51.222;6.624;2023-03-01T22:26:33;4.10;1.00
3876;DHT22;1953;51.222;6.624;2023-03-01T22:31:16;5.30;1.00
3876;DHT22;1953;51.222;6.624;2023-03-01T22:36:00;3.90;1.00
3876;DHT22;1953;51.222;6.624;2023-03-01T22:40:42;3.90;1.00
3876;DHT22;1953;51.222;6.624;2023-03-01T22:45:27;3.80;1.00
3876;DHT22;1953;51.222;6.624;2023-03-01T22:50:12;3.80;1.00
3876;DHT22;1953;51.222;6.624;2023-03-01T22:54:56;3.70;1.00
3876;DHT22;1953;51.222;6.624;2023-03-01T22:59:38;3.70;1.00
3876;DHT22;1953;51.222;6.624;2023-03-01T23:04:22;3.70;1.00
3876;DHT22;1953;51.222;6.624;2023-03-01T23:09:04;3.70;1.00
3876;DHT22;1953;51.222;6.624;2023-03-01T23:13:48;3.70;1.00
3876;DHT22;1953;51.222;6.624;2023-03-01T23:18:31;3.70;1.00
3876;DHT22;1953;51.222;6.624;2023-03-01T23:23:13;3.70;1.00
3876;DHT22;1953;51.222;6.624;2023-03-01T23:27:56;3.70;1.00
3876;DHT22;1953;51.222;6.624;2023-03-01T23:32:39;3.60;1.00
3876;DHT22;1953;51.222;6.624;2023-03-01T23:37:22;3.50;1.00
3876;DHT22;1953;51.222;6.624;2023-03-01T23:42:04;3.60;1.00
3876;DHT22;1953;51.222;6.624;2023-03-01T23:46:49;3.60;1.00
3876;DHT22;1953;51.222;6.624;2023-03-01T23:51:32;3.60;1.00
3876;DHT22;1953;51.222;6.624;2023-03-01T23:56:15;3.60;1.00
